sensor_id;sensor_type;location;lat;lon;timestamp;temperature;humidity
8093;DHT22;4089;52.420;13.334;2023-10-08T00:00:33;12.40;99.90
8093;DHT22;4089;52.420;13.334;2023-10-08T00:03:10;12.40;99.90
8093;DHT22;4089;52.420;13.334;2023-10-08T00:05:37;12.40;99.90
8093;DHT22;4089;52.420;13.334;2023-10-08T00:08:05;12.30;99.90
8093;DHT22;4089;52.420;13.334;2023-10-08T00:10:37;12.40;99.90
8093;DHT22;4089;52.420;13.334;2023-10-08T00:13:07;12.40;99.90
8093;DHT22;4089;52.420;13.334;2023-10-08T00:15:36;12.40;99.90
8093;DHT22;4089;52.420;13.334;2023-10-08T00:18:04;12.40;99.90
8093;DHT22;4089;52.420;13.334;2023-10-08T00:20:32;12.40;99.90
8093;DHT22;4089;52.420;13.334;2023-10-08T00:23:09;12.40;99.90
8093;DHT22;4089;52.420;13.334;2023-10-08T00:25:36;12.40;99.90
8093;DHT22;4089;52.420;13.334;2023-10-08T00:28:10;12.30;99.90
8093;DHT22;4089;52.420;13.334;2023-10-08T00:30:40;12.30;99.90
8093;DHT22;4089;52.420;13.334;2023-10-08T00:33:11;12.20;99.90
8093;DHT22;4089;52.420;13.334;2023-10-08T00:35:41;12.20;99.90
8093;DHT22;4089;52.420;13.334;2023-10-08T00:38:09;12.20;99.90
8093;DHT22;4089;52.420;13.334;2023-10-08T00:40:42;12.20;99.90
8093;DHT22;4089;52.420;13.334;2023-10-08T00:43:31;12.30;99.90
8093;DHT22;4089;52.420;13.334;2023-10-08T00:46:00;12.30;99.90
8093;DHT22;4089;52.420;13.334;2023-10-08T00:48:29;12.20;99.90
8093;DHT22;4089;52.420;13.334;2023-10-08T00:51:04;12.20;99.90
8093;DHT22;4089;52.420;13.334;2023-10-08T00:54:03;12.20;99.90
8093;DHT22;4089;52.420;13.334;2023-10-08T00:56:37;12.20;99.90
8093;DHT22;4089;52.420;13.334;2023-10-08T00:59:19;12.10;99.90
8093;DHT22;4089;52.420;13.334;2023-10-08T01:01:51;12.10;99.90
8093;DHT22;4089;52.420;13.334;2023-10-08T01:04:19;12.00;99.90
8093;DHT22;4089;52.420;13.334;2023-10-08T01:06:57;12.00;99.90
8093;DHT22;4089;52.420;13.334;2023-10-08T01:09:28;12.10;99.90
8093;DHT22;4089;52.420;13.334;2023-10-08T01:12:11;12.10;99.90
8093;DHT22;4089;52.420;13.334;2023-10-08T01:14:40;12.10;99.90
8093;DHT22;4089;52.420;13.334;2023-10-08T01:17:10;12.10;99.90
8093;DHT22;4089;52.420;13.334;2023-10-08T01:19:43;12.20;99.90
8093;DHT22;4089;52.420;13.334;2023-10-08T01:22:12;12.20;99.90
8093;DHT22;4089;52.420;13.334;2023-10-08T01:24:45;12.10;99.90
8093;DHT22;4089;52.420;13.334;2023-10-08T01:27:16;12.10;99.90
8093;DHT22;4089;52.420;13.334;2023-10-08T01:29:51;12.10;99.90
8093;DHT22;4089;52.420;13.334;2023-10-08T01:32:20;12.10;99.90
8093;DHT22;4089;52.420;13.334;2023-10-08T01:34:49;12.10;99.90
8093;DHT22;4089;52.420;13.334;2023-10-08T01:37:17;12.10;99.90
8093;DHT22;4089;52.420;13.334;2023-10-08T01:39:47;12.20;99.90
8093;DHT22;4089;52.420;13.334;2023-10-08T01:42:17;12.10;99.90
8093;DHT22;4089;52.420;13.334;2023-10-08T01:44:48;12.10;99.90
8093;DHT22;4089;52.420;13.334;2023-10-08T01:47:16;12.10;99.90
8093;DHT22;4089;52.420;13.334;2023-10-08T01:49:44;11.90;99.90
8093;DHT22;4089;52.420;13.334;2023-10-08T01:52:14;12.00;99.90
8093;DHT22;4089;52.420;13.334;2023-10-08T01:54:48;12.00;99.90
8093;DHT22;4089;52.420;13.334;2023-10-08T01:57:16;12.10;99.90
8093;DHT22;4089;52.420;13.334;2023-10-08T01:59:44;12.10;99.90
8093;DHT22;4089;52.420;13.334;2023-10-08T02:02:11;12.10;99.90
8093;DHT22;4089;52.420;13.334;2023-10-08T02:04:47;12.10;99.90
8093;DHT22;4089;52.420;13.334;2023-10-08T02:07:14;12.10;99.90
8093;DHT22;4089;52.420;13.334;2023-10-08T02:09:41;12.10;99.90
8093;DHT22;4089;52.420;13.334;2023-10-08T02:12:08;12.10;99.90
8093;DHT22;4089;52.420;13.334;2023-10-08T02:14:35;12.00;99.90
8093;DHT22;4089;52.420;13.334;2023-10-08T02:17:02;12.00;99.90
8093;DHT22;4089;52.420;13.334;2023-10-08T02:19:33;12.00;99.90
8093;DHT22;4089;52.420;13.334;2023-10-08T02:22:01;12.10;99.90
8093;DHT22;4089;52.420;13.334;2023-10-08T02:24:30;12.10;99.90
8093;DHT22;4089;52.420;13.334;2023-10-08T02:26:57;12.10;99.90
8093;DHT22;4089;52.420;13.334;2023-10-08T02:29:28;12.00;99.90
8093;DHT22;4089;52.420;13.334;2023-10-08T02:31:57;12.10;99.90
8093;DHT22;4089;52.420;13.334;2023-10-08T02:34:24;12.10;99.90
8093;DHT22;4089;52.420;13.334;2023-10-08T02:36:50;12.10;99.90
8093;DHT22;4089;52.420;13.334;2023-10-08T02:39:19;12.00;99.90
8093;DHT22;4089;52.420;13.334;2023-10-08T02:41:52;11.90;99.90
8093;DHT22;4089;52.420;13.334;2023-10-08T02:44:22;12.00;99.90
8093;DHT22;4089;52.420;13.334;2023-10-08T02:46:49;12.00;99.90
8093;DHT22;4089;52.420;13.334;2023-10-08T02:49:18;11.90;99.90
8093;DHT22;4089;52.420;13.334;2023-10-08T02:51:54;11.90;99.90
8093;DHT22;4089;52.420;13.334;2023-10-08T02:54:22;11.90;99.90
8093;DHT22;4089;52.420;13.334;2023-10-08T02:57:05;11.90;99.90
8093;DHT22;4089;52.420;13.334;2023-10-08T02:59:40;12.00;99.90
8093;DHT22;4089;52.420;13.334;2023-10-08T03:02:12;12.00;99.90
8093;DHT22;4089;52.420;13.334;2023-10-08T03:04:42;12.00;99.90
8093;DHT22;4089;52.420;13.334;2023-10-08T03:07:15;11.80;99.90
8093;DHT22;4089;52.420;13.334;2023-10-08T03:09:52;11.80;99.90
8093;DHT22;4089;52.420;13.334;2023-10-08T03:12:42;11.90;99.90
8093;DHT22;4089;52.420;13.334;2023-10-08T03:15:09;11.90;99.90
8093;DHT22;4089;52.420;13.334;2023-10-08T03:17:55;11.90;99.90
8093;DHT22;4089;52.420;13.334;2023-10-08T03:20:24;11.90;99.90
8093;DHT22;4089;52.420;13.334;2023-10-08T03:23:18;12.00;99.90
8093;DHT22;4089;52.420;13.334;2023-10-08T03:25:56;12.00;99.90
8093;DHT22;4089;52.420;13.334;2023-10-08T03:28:52;12.00;99.90
8093;DHT22;4089;52.420;13.334;2023-10-08T03:31:24;11.90;99.90
8093;DHT22;4089;52.420;13.334;2023-10-08T03:34:11;11.90;99.90
8093;DHT22;4089;52.420;13.334;2023-10-08T03:36:42;11.80;99.90
8093;DHT22;4089;52.420;13.334;2023-10-08T03:39:15;11.80;99.90
8093;DHT22;4089;52.420;13.334;2023-10-08T03:41:43;11.90;99.90
8093;DHT22;4089;52.420;13.334;2023-10-08T03:44:31;11.90;99.90
8093;DHT22;4089;52.420;13.334;2023-10-08T03:46:57;12.00;99.90
8093;DHT22;4089;52.420;13.334;2023-10-08T03:49:24;12.00;99.90
8093;DHT22;4089;52.420;13.334;2023-10-08T03:51:52;12.00;99.90
8093;DHT22;4089;52.420;13.334;2023-10-08T03:54:24;12.00;99.90
8093;DHT22;4089;52.420;13.334;2023-10-08T03:57:01;11.90;99.90
8093;DHT22;4089;52.420;13.334;2023-10-08T03:59:33;11.90;99.90
8093;DHT22;4089;52.420;13.334;2023-10-08T04:02:02;12.00;99.90
8093;DHT22;4089;52.420;13.334;2023-10-08T04:04:50;11.80;99.90
8093;DHT22;4089;52.420;13.334;2023-10-08T04:07:24;11.90;99.90
8093;DHT22;4089;52.420;13.334;2023-10-08T04:09:53;11.90;99.90
8093;DHT22;4089;52.420;13.334;2023-10-08T04:12:40;11.90;99.90
8093;DHT22;4089;52.420;13.334;2023-10-08T04:15:18;11.90;99.90
8093;DHT22;4089;52.420;13.334;2023-10-08T04:17:47;12.00;99.90
8093;DHT22;4089;52.420;13.334;2023-10-08T04:20:18;12.10;99.90
8093;DHT22;4089;52.420;13.334;2023-10-08T04:23:15;12.00;99.90
8093;DHT22;4089;52.420;13.334;2023-10-08T04:25:47;12.00;99.90
8093;DHT22;4089;52.420;13.334;2023-10-08T04:28:21;12.10;99.90
8093;DHT22;4089;52.420;13.334;2023-10-08T04:30:48;12.00;99.90
8093;DHT22;4089;52.420;13.334;2023-10-08T04:33:17;12.00;99.90
8093;DHT22;4089;52.420;13.334;2023-10-08T04:35:46;11.90;99.90
8093;DHT22;4089;52.420;13.334;2023-10-08T04:38:20;12.00;99.90
8093;DHT22;4089;52.420;13.334;2023-10-08T04:40:52;12.00;99.90
8093;DHT22;4089;52.420;13.334;2023-10-08T04:43:21;12.00;99.90
8093;DHT22;4089;52.420;13.334;2023-10-08T04:46:00;12.00;99.90
8093;DHT22;4089;52.420;13.334;2023-10-08T04:48:47;11.90;99.90
8093;DHT22;4089;52.420;13.334;2023-10-08T04:51:13;11.90;99.90
8093;DHT22;4089;52.420;13.334;2023-10-08T04:53:40;11.90;99.90
8093;DHT22;4089;52.420;13.334;2023-10-08T04:56:09;11.90;99.90
8093;DHT22;4089;52.420;13.334;2023-10-08T04:58:49;11.90;99.90
8093;DHT22;4089;52.420;13.334;2023-10-08T05:01:17;11.80;99.90
8093;DHT22;4089;52.420;13.334;2023-10-08T05:03:50;11.80;99.90
8093;DHT22;4089;52.420;13.334;2023-10-08T05:06:28;11.80;99.90
8093;DHT22;4089;52.420;13.334;2023-10-08T05:11:40;11.70;99.90
8093;DHT22;4089;52.420;13.334;2023-10-08T05:14:24;11.70;99.90
8093;DHT22;4089;52.420;13.334;2023-10-08T05:17:02;11.60;99.90
8093;DHT22;4089;52.420;13.334;2023-10-08T05:19:37;11.60;99.90
8093;DHT22;4089;52.420;13.334;2023-10-08T05:22:24;11.60;99.90
8093;DHT22;4089;52.420;13.334;2023-10-08T05:24:55;11.60;99.90
8093;DHT22;4089;52.420;13.334;2023-10-08T05:27:55;11.60;99.90
8093;DHT22;4089;52.420;13.334;2023-10-08T05:30:27;11.60;99.90
8093;DHT22;4089;52.420;13.334;2023-10-08T05:33:20;11.60;99.90
8093;DHT22;4089;52.420;13.334;2023-10-08T05:36:13;11.60;99.90
8093;DHT22;4089;52.420;13.334;2023-10-08T05:38:55;11.60;99.90
8093;DHT22;4089;52.420;13.334;2023-10-08T05:41:31;11.50;99.90
8093;DHT22;4089;52.420;13.334;2023-10-08T05:44:09;11.50;99.90
8093;DHT22;4089;52.420;13.334;2023-10-08T05:46:51;11.50;99.90
8093;DHT22;4089;52.420;13.334;2023-10-08T05:49:38;11.40;99.90
8093;DHT22;4089;52.420;13.334;2023-10-08T05:52:08;11.40;99.90
8093;DHT22;4089;52.420;13.334;2023-10-08T05:54:51;11.50;99.90
8093;DHT22;4089;52.420;13.334;2023-10-08T05:57:42;11.50;99.90
8093;DHT22;4089;52.420;13.334;2023-10-08T06:00:13;11.50;99.90
8093;DHT22;4089;52.420;13.334;2023-10-08T06:02:42;11.60;99.90
8093;DHT22;4089;52.420;13.334;2023-10-08T06:05:12;11.70;99.90
8093;DHT22;4089;52.420;13.334;2023-10-08T06:07:48;11.70;99.90
8093;DHT22;4089;52.420;13.334;2023-10-08T06:13:09;11.60;99.90
8093;DHT22;4089;52.420;13.334;2023-10-08T06:15:41;11.70;99.90
8093;DHT22;4089;52.420;13.334;2023-10-08T06:18:16;11.60;99.90
8093;DHT22;4089;52.420;13.334;2023-10-08T06:20:46;11.70;99.90
8093;DHT22;4089;52.420;13.334;2023-10-08T06:23:18;11.60;99.90
8093;DHT22;4089;52.420;13.334;2023-10-08T06:25:46;11.70;99.90
8093;DHT22;4089;52.420;13.334;2023-10-08T06:28:14;11.80;99.90
8093;DHT22;4089;52.420;13.334;2023-10-08T06:30:46;11.80;99.90
8093;DHT22;4089;52.420;13.334;2023-10-08T06:33:14;11.80;99.90
8093;DHT22;4089;52.420;13.334;2023-10-08T06:35:42;11.90;99.90
8093;DHT22;4089;52.420;13.334;2023-10-08T06:38:23;11.90;99.90
8093;DHT22;4089;52.420;13.334;2023-10-08T06:40:51;11.80;99.90
8093;DHT22;4089;52.420;13.334;2023-10-08T06:43:22;11.80;99.90
8093;DHT22;4089;52.420;13.334;2023-10-08T06:45:51;11.90;99.90
8093;DHT22;4089;52.420;13.334;2023-10-08T06:48:25;11.80;99.90
8093;DHT22;4089;52.420;13.334;2023-10-08T06:50:53;11.80;99.90
8093;DHT22;4089;52.420;13.334;2023-10-08T06:53:34;11.90;99.90
8093;DHT22;4089;52.420;13.334;2023-10-08T06:56:01;11.90;99.90
8093;DHT22;4089;52.420;13.334;2023-10-08T06:58:31;11.90;99.90
8093;DHT22;4089;52.420;13.334;2023-10-08T07:01:02;11.90;99.90
8093;DHT22;4089;52.420;13.334;2023-10-08T07:03:32;12.00;99.90
8093;DHT22;4089;52.420;13.334;2023-10-08T07:06:01;12.10;99.90
8093;DHT22;4089;52.420;13.334;2023-10-08T07:08:30;12.10;99.90
8093;DHT22;4089;52.420;13.334;2023-10-08T07:11:03;12.20;99.90
8093;DHT22;4089;52.420;13.334;2023-10-08T07:13:39;12.30;99.90
8093;DHT22;4089;52.420;13.334;2023-10-08T07:16:07;12.30;99.90
8093;DHT22;4089;52.420;13.334;2023-10-08T07:18:38;12.30;99.90
8093;DHT22;4089;52.420;13.334;2023-10-08T07:21:06;12.20;99.90
8093;DHT22;4089;52.420;13.334;2023-10-08T07:23:39;12.10;99.90
8093;DHT22;4089;52.420;13.334;2023-10-08T07:26:26;12.00;99.90
8093;DHT22;4089;52.420;13.334;2023-10-08T07:29:04;12.10;99.90
8093;DHT22;4089;52.420;13.334;2023-10-08T07:31:38;12.10;99.90
8093;DHT22;4089;52.420;13.334;2023-10-08T07:34:08;12.20;99.90
8093;DHT22;4089;52.420;13.334;2023-10-08T07:37:05;12.30;99.90
8093;DHT22;4089;52.420;13.334;2023-10-08T07:39:32;12.20;99.90
8093;DHT22;4089;52.420;13.334;2023-10-08T07:42:04;12.20;99.90
8093;DHT22;4089;52.420;13.334;2023-10-08T07:44:32;12.20;99.90
8093;DHT22;4089;52.420;13.334;2023-10-08T07:47:02;12.20;99.90
8093;DHT22;4089;52.420;13.334;2023-10-08T07:49:37;12.20;99.90
8093;DHT22;4089;52.420;13.334;2023-10-08T07:52:05;12.20;99.90
8093;DHT22;4089;52.420;13.334;2023-10-08T07:54:32;12.30;99.90
8093;DHT22;4089;52.420;13.334;2023-10-08T07:57:02;12.30;99.90
8093;DHT22;4089;52.420;13.334;2023-10-08T07:59:58;12.40;99.90
8093;DHT22;4089;52.420;13.334;2023-10-08T08:02:45;12.40;99.90
8093;DHT22;4089;52.420;13.334;2023-10-08T08:05:11;12.30;99.90
8093;DHT22;4089;52.420;13.334;2023-10-08T08:07:43;12.40;99.90
8093;DHT22;4089;52.420;13.334;2023-10-08T08:10:13;12.40;99.90
8093;DHT22;4089;52.420;13.334;2023-10-08T08:12:40;12.50;99.90
8093;DHT22;4089;52.420;13.334;2023-10-08T08:15:08;12.50;99.90
8093;DHT22;4089;52.420;13.334;2023-10-08T08:17:48;12.50;99.90
8093;DHT22;4089;52.420;13.334;2023-10-08T08:20:15;12.50;99.90
8093;DHT22;4089;52.420;13.334;2023-10-08T08:22:45;12.50;99.90
8093;DHT22;4089;52.420;13.334;2023-10-08T08:25:17;12.60;99.90
8093;DHT22;4089;52.420;13.334;2023-10-08T08:27:53;12.70;99.90
8093;DHT22;4089;52.420;13.334;2023-10-08T08:30:20;12.80;99.90
8093;DHT22;4089;52.420;13.334;2023-10-08T08:32:53;12.80;99.90
8093;DHT22;4089;52.420;13.334;2023-10-08T08:35:23;12.90;99.90
8093;DHT22;4089;52.420;13.334;2023-10-08T08:37:53;12.90;99.90
8093;DHT22;4089;52.420;13.334;2023-10-08T08:40:21;12.80;99.90
8093;DHT22;4089;52.420;13.334;2023-10-08T08:42:50;12.90;99.90
8093;DHT22;4089;52.420;13.334;2023-10-08T08:45:21;13.00;99.90
8093;DHT22;4089;52.420;13.334;2023-10-08T08:47:48;13.10;99.90
8093;DHT22;4089;52.420;13.334;2023-10-08T08:50:17;13.10;99.90
8093;DHT22;4089;52.420;13.334;2023-10-08T08:52:46;13.10;99.90
8093;DHT22;4089;52.420;13.334;2023-10-08T08:55:13;13.00;99.90
8093;DHT22;4089;52.420;13.334;2023-10-08T08:57:47;13.10;99.90
8093;DHT22;4089;52.420;13.334;2023-10-08T09:00:16;13.10;99.90
8093;DHT22;4089;52.420;13.334;2023-10-08T09:02:44;13.20;99.90
8093;DHT22;4089;52.420;13.334;2023-10-08T09:05:15;13.10;99.90
8093;DHT22;4089;52.420;13.334;2023-10-08T09:07:56;13.20;99.90
8093;DHT22;4089;52.420;13.334;2023-10-08T09:10:30;13.20;99.90
8093;DHT22;4089;52.420;13.334;2023-10-08T09:13:04;13.30;99.90
8093;DHT22;4089;52.420;13.334;2023-10-08T09:15:31;13.50;99.90
8093;DHT22;4089;52.420;13.334;2023-10-08T09:18:01;13.60;99.90
8093;DHT22;4089;52.420;13.334;2023-10-08T09:20:36;13.50;99.90
8093;DHT22;4089;52.420;13.334;2023-10-08T09:23:16;13.60;99.90
8093;DHT22;4089;52.420;13.334;2023-10-08T09:25:49;13.70;99.90
8093;DHT22;4089;52.420;13.334;2023-10-08T09:28:26;13.80;99.90
8093;DHT22;4089;52.420;13.334;2023-10-08T09:30:52;14.00;99.90
8093;DHT22;4089;52.420;13.334;2023-10-08T09:33:21;14.10;99.90
8093;DHT22;4089;52.420;13.334;2023-10-08T09:35:49;14.10;99.90
8093;DHT22;4089;52.420;13.334;2023-10-08T09:38:19;14.10;99.90
8093;DHT22;4089;52.420;13.334;2023-10-08T09:40:52;14.00;99.90
8093;DHT22;4089;52.420;13.334;2023-10-08T09:43:20;14.10;99.90
8093;DHT22;4089;52.420;13.334;2023-10-08T09:46:13;14.20;99.90
8093;DHT22;4089;52.420;13.334;2023-10-08T09:48:49;14.30;99.90
8093;DHT22;4089;52.420;13.334;2023-10-08T09:51:16;14.40;99.90
8093;DHT22;4089;52.420;13.334;2023-10-08T09:56:19;14.20;99.90
8093;DHT22;4089;52.420;13.334;2023-10-08T09:58:46;14.30;99.90
8093;DHT22;4089;52.420;13.334;2023-10-08T10:01:18;14.30;99.90
8093;DHT22;4089;52.420;13.334;2023-10-08T10:03:46;14.20;99.90
8093;DHT22;4089;52.420;13.334;2023-10-08T10:06:15;14.20;99.90
8093;DHT22;4089;52.420;13.334;2023-10-08T10:08:50;14.20;99.90
8093;DHT22;4089;52.420;13.334;2023-10-08T10:11:17;14.20;99.90
8093;DHT22;4089;52.420;13.334;2023-10-08T10:13:50;14.30;99.90
8093;DHT22;4089;52.420;13.334;2023-10-08T10:16:21;14.50;99.90
8093;DHT22;4089;52.420;13.334;2023-10-08T10:18:55;14.60;99.90
8093;DHT22;4089;52.420;13.334;2023-10-08T10:21:28;14.60;99.90
8093;DHT22;4089;52.420;13.334;2023-10-08T10:23:56;14.40;99.90
8093;DHT22;4089;52.420;13.334;2023-10-08T10:29:18;14.70;99.90
8093;DHT22;4089;52.420;13.334;2023-10-08T10:31:53;14.70;99.90
8093;DHT22;4089;52.420;13.334;2023-10-08T10:34:22;14.60;99.90
8093;DHT22;4089;52.420;13.334;2023-10-08T10:36:51;14.50;99.90
8093;DHT22;4089;52.420;13.334;2023-10-08T10:39:24;14.60;99.90
8093;DHT22;4089;52.420;13.334;2023-10-08T10:41:57;14.70;94.00
8093;DHT22;4089;52.420;13.334;2023-10-08T10:44:24;14.60;94.60
8093;DHT22;4089;52.420;13.334;2023-10-08T10:46:52;14.40;95.10
8093;DHT22;4089;52.420;13.334;2023-10-08T10:49:39;14.30;95.90
8093;DHT22;4089;52.420;13.334;2023-10-08T10:52:16;14.30;97.90
8093;DHT22;4089;52.420;13.334;2023-10-08T10:54:44;14.40;96.70
8093;DHT22;4089;52.420;13.334;2023-10-08T10:57:34;14.60;95.60
8093;DHT22;4089;52.420;13.334;2023-10-08T11:00:09;14.70;94.60
8093;DHT22;4089;52.420;13.334;2023-10-08T11:02:56;14.90;95.20
8093;DHT22;4089;52.420;13.334;2023-10-08T11:05:27;15.00;95.00
8093;DHT22;4089;52.420;13.334;2023-10-08T11:07:59;14.90;93.30
8093;DHT22;4089;52.420;13.334;2023-10-08T11:10:37;14.70;92.70
8093;DHT22;4089;52.420;13.334;2023-10-08T11:13:12;14.50;91.80
8093;DHT22;4089;52.420;13.334;2023-10-08T11:15:43;14.60;91.80
8093;DHT22;4089;52.420;13.334;2023-10-08T11:18:17;14.80;92.40
8093;DHT22;4089;52.420;13.334;2023-10-08T11:20:46;14.90;92.40
8093;DHT22;4089;52.420;13.334;2023-10-08T11:26:01;14.80;90.70
8093;DHT22;4089;52.420;13.334;2023-10-08T11:28:37;14.90;91.60
8093;DHT22;4089;52.420;13.334;2023-10-08T11:31:17;15.00;92.70
8093;DHT22;4089;52.420;13.334;2023-10-08T11:33:47;15.10;91.90
8093;DHT22;4089;52.420;13.334;2023-10-08T11:36:22;15.30;93.30
8093;DHT22;4089;52.420;13.334;2023-10-08T11:38:56;15.40;91.30
8093;DHT22;4089;52.420;13.334;2023-10-08T11:41:28;15.40;91.30
8093;DHT22;4089;52.420;13.334;2023-10-08T11:44:02;15.30;88.80
8093;DHT22;4089;52.420;13.334;2023-10-08T11:46:31;15.40;92.90
8093;DHT22;4089;52.420;13.334;2023-10-08T11:49:05;15.60;91.10
8093;DHT22;4089;52.420;13.334;2023-10-08T11:51:34;15.40;86.00
8093;DHT22;4089;52.420;13.334;2023-10-08T11:54:02;15.50;90.00
8093;DHT22;4089;52.420;13.334;2023-10-08T11:56:29;15.70;88.70
8093;DHT22;4089;52.420;13.334;2023-10-08T11:58:56;15.70;85.40
8093;DHT22;4089;52.420;13.334;2023-10-08T12:01:26;15.80;83.00
8093;DHT22;4089;52.420;13.334;2023-10-08T12:03:54;16.00;84.00
8093;DHT22;4089;52.420;13.334;2023-10-08T12:06:26;15.80;82.70
8093;DHT22;4089;52.420;13.334;2023-10-08T12:08:57;16.00;89.60
8093;DHT22;4089;52.420;13.334;2023-10-08T12:11:26;16.00;84.80
8093;DHT22;4089;52.420;13.334;2023-10-08T12:13:58;16.00;85.00
8093;DHT22;4089;52.420;13.334;2023-10-08T12:16:26;15.90;84.30
8093;DHT22;4089;52.420;13.334;2023-10-08T12:18:56;15.80;82.50
8093;DHT22;4089;52.420;13.334;2023-10-08T12:21:30;15.80;82.00
8093;DHT22;4089;52.420;13.334;2023-10-08T12:23:57;15.80;85.20
8093;DHT22;4089;52.420;13.334;2023-10-08T12:26:25;15.80;84.30
8093;DHT22;4089;52.420;13.334;2023-10-08T12:28:52;15.90;88.60
8093;DHT22;4089;52.420;13.334;2023-10-08T12:31:21;16.00;88.10
8093;DHT22;4089;52.420;13.334;2023-10-08T12:33:51;16.00;90.80
8093;DHT22;4089;52.420;13.334;2023-10-08T12:36:23;16.70;86.90
8093;DHT22;4089;52.420;13.334;2023-10-08T12:38:53;18.00;83.90
8093;DHT22;4089;52.420;13.334;2023-10-08T12:41:26;19.10;78.90
8093;DHT22;4089;52.420;13.334;2023-10-08T12:43:53;20.90;70.30
8093;DHT22;4089;52.420;13.334;2023-10-08T12:46:21;20.90;65.00
8093;DHT22;4089;52.420;13.334;2023-10-08T12:48:52;20.80;67.40
8093;DHT22;4089;52.420;13.334;2023-10-08T12:51:21;20.90;61.10
8093;DHT22;4089;52.420;13.334;2023-10-08T12:53:53;20.50;60.90
8093;DHT22;4089;52.420;13.334;2023-10-08T12:56:30;19.40;61.00
8093;DHT22;4089;52.420;13.334;2023-10-08T12:59:12;18.70;58.90
8093;DHT22;4089;52.420;13.334;2023-10-08T13:01:49;18.10;61.90
8093;DHT22;4089;52.420;13.334;2023-10-08T13:04:22;17.90;65.50
8093;DHT22;4089;52.420;13.334;2023-10-08T13:06:57;17.90;64.30
8093;DHT22;4089;52.420;13.334;2023-10-08T13:09:27;18.20;68.60
8093;DHT22;4089;52.420;13.334;2023-10-08T13:11:58;18.80;61.60
8093;DHT22;4089;52.420;13.334;2023-10-08T13:14:26;20.50;63.40
8093;DHT22;4089;52.420;13.334;2023-10-08T13:16:53;22.20;58.10
8093;DHT22;4089;52.420;13.334;2023-10-08T13:19:20;22.40;53.30
8093;DHT22;4089;52.420;13.334;2023-10-08T13:21:50;22.00;55.40
8093;DHT22;4089;52.420;13.334;2023-10-08T13:24:20;21.20;53.50
8093;DHT22;4089;52.420;13.334;2023-10-08T13:26:51;20.30;54.00
8093;DHT22;4089;52.420;13.334;2023-10-08T13:29:18;19.10;59.10
8093;DHT22;4089;52.420;13.334;2023-10-08T13:31:46;18.50;59.10
8093;DHT22;4089;52.420;13.334;2023-10-08T13:34:13;18.40;58.00
8093;DHT22;4089;52.420;13.334;2023-10-08T13:36:45;18.10;55.20
8093;DHT22;4089;52.420;13.334;2023-10-08T13:39:14;17.80;59.00
8093;DHT22;4089;52.420;13.334;2023-10-08T13:41:45;17.40;58.90
8093;DHT22;4089;52.420;13.334;2023-10-08T13:44:16;17.30;62.20
8093;DHT22;4089;52.420;13.334;2023-10-08T13:46:45;17.30;61.20
8093;DHT22;4089;52.420;13.334;2023-10-08T13:49:17;17.50;63.70
8093;DHT22;4089;52.420;13.334;2023-10-08T13:51:46;17.20;61.90
8093;DHT22;4089;52.420;13.334;2023-10-08T13:54:14;17.20;61.70
8093;DHT22;4089;52.420;13.334;2023-10-08T13:56:42;17.30;61.80
8093;DHT22;4089;52.420;13.334;2023-10-08T13:59:15;17.20;61.70
8093;DHT22;4089;52.420;13.334;2023-10-08T14:01:44;17.10;61.30
8093;DHT22;4089;52.420;13.334;2023-10-08T14:04:19;16.90;62.10
8093;DHT22;4089;52.420;13.334;2023-10-08T14:06:57;16.90;62.80
8093;DHT22;4089;52.420;13.334;2023-10-08T14:09:25;17.00;64.10
8093;DHT22;4089;52.420;13.334;2023-10-08T14:12:05;17.00;63.60
8093;DHT22;4089;52.420;13.334;2023-10-08T14:14:34;16.90;64.70
8093;DHT22;4089;52.420;13.334;2023-10-08T14:17:02;16.60;61.20
8093;DHT22;4089;52.420;13.334;2023-10-08T14:19:38;16.20;61.50
8093;DHT22;4089;52.420;13.334;2023-10-08T14:22:19;16.30;62.30
8093;DHT22;4089;52.420;13.334;2023-10-08T14:24:49;16.30;63.00
8093;DHT22;4089;52.420;13.334;2023-10-08T14:27:26;16.60;63.60
8093;DHT22;4089;52.420;13.334;2023-10-08T14:29:59;16.60;63.30
8093;DHT22;4089;52.420;13.334;2023-10-08T14:32:28;16.50;61.20
8093;DHT22;4089;52.420;13.334;2023-10-08T14:34:55;16.40;64.10
8093;DHT22;4089;52.420;13.334;2023-10-08T14:37:22;16.20;61.00
8093;DHT22;4089;52.420;13.334;2023-10-08T14:40:08;16.20;64.00
8093;DHT22;4089;52.420;13.334;2023-10-08T14:42:54;16.30;62.60
8093;DHT22;4089;52.420;13.334;2023-10-08T14:45:32;16.30;60.90
8093;DHT22;4089;52.420;13.334;2023-10-08T14:48:03;16.70;62.20
8093;DHT22;4089;52.420;13.334;2023-10-08T14:50:34;17.00;62.90
8093;DHT22;4089;52.420;13.334;2023-10-08T14:53:01;17.10;62.60
8093;DHT22;4089;52.420;13.334;2023-10-08T14:55:32;17.00;62.00
8093;DHT22;4089;52.420;13.334;2023-10-08T14:58:02;16.90;63.60
8093;DHT22;4089;52.420;13.334;2023-10-08T15:00:36;16.90;63.20
8093;DHT22;4089;52.420;13.334;2023-10-08T15:03:04;17.10;64.90
8093;DHT22;4089;52.420;13.334;2023-10-08T15:05:32;17.50;66.10
8093;DHT22;4089;52.420;13.334;2023-10-08T15:07:58;17.50;62.30
8093;DHT22;4089;52.420;13.334;2023-10-08T15:10:26;17.30;63.30
8093;DHT22;4089;52.420;13.334;2023-10-08T15:12:52;17.50;64.90
8093;DHT22;4089;52.420;13.334;2023-10-08T15:15:20;17.80;64.60
8093;DHT22;4089;52.420;13.334;2023-10-08T15:17:52;18.10;63.20
8093;DHT22;4089;52.420;13.334;2023-10-08T15:20:19;18.30;64.70
8093;DHT22;4089;52.420;13.334;2023-10-08T15:22:48;18.50;64.90
8093;DHT22;4089;52.420;13.334;2023-10-08T15:25:17;18.20;63.30
8093;DHT22;4089;52.420;13.334;2023-10-08T15:27:45;17.60;66.10
8093;DHT22;4089;52.420;13.334;2023-10-08T15:30:15;17.30;64.10
8093;DHT22;4089;52.420;13.334;2023-10-08T15:32:43;17.00;68.90
8093;DHT22;4089;52.420;13.334;2023-10-08T15:35:12;16.80;72.30
8093;DHT22;4089;52.420;13.334;2023-10-08T15:37:41;16.60;77.40
8093;DHT22;4089;52.420;13.334;2023-10-08T15:40:09;16.40;72.40
8093;DHT22;4089;52.420;13.334;2023-10-08T15:42:52;16.30;70.70
8093;DHT22;4089;52.420;13.334;2023-10-08T15:45:21;16.10;72.70
8093;DHT22;4089;52.420;13.334;2023-10-08T15:47:49;15.80;71.30
8093;DHT22;4089;52.420;13.334;2023-10-08T15:50:24;15.70;73.10
8093;DHT22;4089;52.420;13.334;2023-10-08T15:52:52;15.60;72.60
8093;DHT22;4089;52.420;13.334;2023-10-08T15:55:35;15.40;73.90
8093;DHT22;4089;52.420;13.334;2023-10-08T15:58:02;15.30;73.50
8093;DHT22;4089;52.420;13.334;2023-10-08T16:00:29;15.30;77.90
8093;DHT22;4089;52.420;13.334;2023-10-08T16:02:56;15.30;75.90
8093;DHT22;4089;52.420;13.334;2023-10-08T16:05:23;15.20;75.60
8093;DHT22;4089;52.420;13.334;2023-10-08T16:07:50;15.10;78.90
8093;DHT22;4089;52.420;13.334;2023-10-08T16:10:17;15.00;75.60
8093;DHT22;4089;52.420;13.334;2023-10-08T16:12:44;14.90;75.90
8093;DHT22;4089;52.420;13.334;2023-10-08T16:15:11;14.90;79.00
8093;DHT22;4089;52.420;13.334;2023-10-08T16:17:38;14.90;79.90
8093;DHT22;4089;52.420;13.334;2023-10-08T16:20:06;14.90;81.90
8093;DHT22;4089;52.420;13.334;2023-10-08T16:22:42;14.90;80.80
8093;DHT22;4089;52.420;13.334;2023-10-08T16:25:14;14.80;81.50
8093;DHT22;4089;52.420;13.334;2023-10-08T16:27:45;14.80;85.40
8093;DHT22;4089;52.420;13.334;2023-10-08T16:30:20;14.70;85.70